sensor_id;sensor_type;location;lat;lon;timestamp;P1;durP1;ratioP1;P2;durP2;ratioP2
78183;SDS011;67442;44.570;18.610;2023-02-12T00:00:42;335.25;;;121.43;;
78183;SDS011;67442;44.570;18.610;2023-02-12T00:03:09;477.50;;;164.07;;
78183;SDS011;67442;44.570;18.610;2023-02-12T00:05:39;449.90;;;151.82;;
78183;SDS011;67442;44.570;18.610;2023-02-12T00:08:08;447.05;;;153.20;;
78183;SDS011;67442;44.570;18.610;2023-02-12T00:10:43;424.05;;;141.85;;
78183;SDS011;67442;44.570;18.610;2023-02-12T00:13:10;388.20;;;135.30;;
78183;SDS011;67442;44.570;18.610;2023-02-12T00:15:38;329.63;;;119.47;;
78183;SDS011;67442;44.570;18.610;2023-02-12T00:18:07;328.73;;;114.30;;
78183;SDS011;67442;44.570;18.610;2023-02-12T00:20:34;341.73;;;117.45;;
78183;SDS011;67442;44.570;18.610;2023-02-12T00:23:02;319.10;;;107.53;;
78183;SDS011;67442;44.570;18.610;2023-02-12T00:25:33;293.75;;;101.68;;
78183;SDS011;67442;44.570;18.610;2023-02-12T00:28:03;307.95;;;112.38;;
78183;SDS011;67442;44.570;18.610;2023-02-12T00:30:31;321.05;;;115.03;;
78183;SDS011;67442;44.570;18.610;2023-02-12T00:32:58;362.67;;;127.35;;
78183;SDS011;67442;44.570;18.610;2023-02-12T00:35:25;365.35;;;128.43;;
78183;SDS011;67442;44.570;18.610;2023-02-12T00:37:56;389.65;;;134.50;;
78183;SDS011;67442;44.570;18.610;2023-02-12T00:40:24;412.35;;;149.00;;
78183;SDS011;67442;44.570;18.610;2023-02-12T00:42:54;499.50;;;182.10;;
78183;SDS011;67442;44.570;18.610;2023-02-12T00:45:22;442.25;;;158.25;;
78183;SDS011;67442;44.570;18.610;2023-02-12T00:47:49;444.77;;;156.35;;
78183;SDS011;67442;44.570;18.610;2023-02-12T00:50:16;434.52;;;154.43;;
78183;SDS011;67442;44.570;18.610;2023-02-12T00:52:44;431.15;;;156.10;;
78183;SDS011;67442;44.570;18.610;2023-02-12T00:55:11;423.27;;;155.75;;
78183;SDS011;67442;44.570;18.610;2023-02-12T00:57:39;437.40;;;148.52;;
78183;SDS011;67442;44.570;18.610;2023-02-12T01:00:06;505.33;;;177.50;;
78183;SDS011;67442;44.570;18.610;2023-02-12T01:02:35;486.52;;;174.52;;
78183;SDS011;67442;44.570;18.610;2023-02-12T01:05:03;496.02;;;177.43;;
78183;SDS011;67442;44.570;18.610;2023-02-12T01:07:30;455.45;;;160.70;;
78183;SDS011;67442;44.570;18.610;2023-02-12T01:10:01;357.67;;;128.18;;
78183;SDS011;67442;44.570;18.610;2023-02-12T01:12:29;351.92;;;124.47;;
78183;SDS011;67442;44.570;18.610;2023-02-12T01:14:56;331.00;;;111.55;;
78183;SDS011;67442;44.570;18.610;2023-02-12T01:17:24;302.33;;;109.93;;
78183;SDS011;67442;44.570;18.610;2023-02-12T01:19:55;341.55;;;120.45;;
78183;SDS011;67442;44.570;18.610;2023-02-12T01:22:23;359.73;;;124.40;;
78183;SDS011;67442;44.570;18.610;2023-02-12T01:24:50;364.77;;;129.60;;
78183;SDS011;67442;44.570;18.610;2023-02-12T01:27:17;432.15;;;154.13;;
78183;SDS011;67442;44.570;18.610;2023-02-12T01:29:45;403.42;;;147.50;;
78183;SDS011;67442;44.570;18.610;2023-02-12T01:32:12;373.85;;;134.13;;
78183;SDS011;67442;44.570;18.610;2023-02-12T01:34:39;457.55;;;163.02;;
78183;SDS011;67442;44.570;18.610;2023-02-12T01:37:06;441.90;;;159.68;;
78183;SDS011;67442;44.570;18.610;2023-02-12T01:39:33;469.88;;;164.43;;
78183;SDS011;67442;44.570;18.610;2023-02-12T01:42:00;477.27;;;170.23;;
78183;SDS011;67442;44.570;18.610;2023-02-12T01:44:28;494.98;;;171.65;;
78183;SDS011;67442;44.570;18.610;2023-02-12T01:47:03;511.25;;;188.02;;
78183;SDS011;67442;44.570;18.610;2023-02-12T01:49:31;492.63;;;180.18;;
78183;SDS011;67442;44.570;18.610;2023-02-12T01:54:35;451.90;;;155.95;;
78183;SDS011;67442;44.570;18.610;2023-02-12T01:57:07;436.65;;;157.15;;
78183;SDS011;67442;44.570;18.610;2023-02-12T01:59:36;438.65;;;156.50;;
78183;SDS011;67442;44.570;18.610;2023-02-12T02:02:03;465.58;;;164.18;;
78183;SDS011;67442;44.570;18.610;2023-02-12T02:04:32;448.52;;;166.50;;
78183;SDS011;67442;44.570;18.610;2023-02-12T02:07:08;455.17;;;169.82;;
78183;SDS011;67442;44.570;18.610;2023-02-12T02:09:37;462.98;;;164.90;;
78183;SDS011;67442;44.570;18.610;2023-02-12T02:12:05;468.17;;;175.90;;
78183;SDS011;67442;44.570;18.610;2023-02-12T02:14:51;444.27;;;160.98;;
78183;SDS011;67442;44.570;18.610;2023-02-12T02:17:23;440.67;;;159.10;;
78183;SDS011;67442;44.570;18.610;2023-02-12T02:31:14;226.00;;;79.38;;
78183;SDS011;67442;44.570;18.610;2023-02-12T02:36:45;318.88;;;112.43;;
78183;SDS011;67442;44.570;18.610;2023-02-12T02:39:55;348.48;;;115.78;;
78183;SDS011;67442;44.570;18.610;2023-02-12T02:42:38;298.77;;;109.05;;
78183;SDS011;67442;44.570;18.610;2023-02-12T02:45:42;374.08;;;124.43;;
78183;SDS011;67442;44.570;18.610;2023-02-12T02:48:35;359.50;;;124.10;;
78183;SDS011;67442;44.570;18.610;2023-02-12T02:51:10;352.27;;;124.32;;
78183;SDS011;67442;44.570;18.610;2023-02-12T02:53:53;392.00;;;144.18;;
78183;SDS011;67442;44.570;18.610;2023-02-12T02:56:41;385.83;;;138.90;;
78183;SDS011;67442;44.570;18.610;2023-02-12T02:59:11;389.80;;;140.60;;
78183;SDS011;67442;44.570;18.610;2023-02-12T03:01:53;378.00;;;133.60;;
78183;SDS011;67442;44.570;18.610;2023-02-12T03:04:47;326.38;;;116.63;;
78183;SDS011;67442;44.570;18.610;2023-02-12T03:07:30;326.60;;;112.53;;
78183;SDS011;67442;44.570;18.610;2023-02-12T03:10:03;330.90;;;116.63;;
78183;SDS011;67442;44.570;18.610;2023-02-12T03:17:49;438.45;;;150.98;;
78183;SDS011;67442;44.570;18.610;2023-02-12T03:20:21;419.38;;;143.93;;
78183;SDS011;67442;44.570;18.610;2023-02-12T03:22:57;431.05;;;140.32;;
78183;SDS011;67442;44.570;18.610;2023-02-12T03:25:37;423.92;;;144.88;;
78183;SDS011;67442;44.570;18.610;2023-02-12T03:28:18;434.67;;;153.20;;
78183;SDS011;67442;44.570;18.610;2023-02-12T03:30:51;516.13;;;173.13;;
78183;SDS011;67442;44.570;18.610;2023-02-12T03:33:43;544.70;;;195.05;;
78183;SDS011;67442;44.570;18.610;2023-02-12T03:36:55;485.67;;;168.70;;
78183;SDS011;67442;44.570;18.610;2023-02-12T03:54:07;325.55;;;112.90;;
78183;SDS011;67442;44.570;18.610;2023-02-12T03:59:10;317.65;;;115.32;;
78183;SDS011;67442;44.570;18.610;2023-02-12T04:01:37;441.05;;;163.13;;
78183;SDS011;67442;44.570;18.610;2023-02-12T04:04:05;396.58;;;137.68;;
78183;SDS011;67442;44.570;18.610;2023-02-12T04:06:33;405.77;;;146.77;;
78183;SDS011;67442;44.570;18.610;2023-02-12T04:09:05;519.70;;;185.82;;
78183;SDS011;67442;44.570;18.610;2023-02-12T04:28:35;288.70;;;100.07;;
78183;SDS011;67442;44.570;18.610;2023-02-12T04:31:38;237.65;;;86.57;;
78183;SDS011;67442;44.570;18.610;2023-02-12T04:34:12;270.20;;;95.95;;
78183;SDS011;67442;44.570;18.610;2023-02-12T04:36:52;283.48;;;98.90;;
78183;SDS011;67442;44.570;18.610;2023-02-12T04:39:29;305.95;;;108.13;;
78183;SDS011;67442;44.570;18.610;2023-02-12T04:41:59;339.35;;;116.43;;
78183;SDS011;67442;44.570;18.610;2023-02-12T04:44:31;326.00;;;116.85;;
78183;SDS011;67442;44.570;18.610;2023-02-12T04:46:59;341.60;;;123.75;;
78183;SDS011;67442;44.570;18.610;2023-02-12T04:49:27;313.35;;;113.00;;
78183;SDS011;67442;44.570;18.610;2023-02-12T04:51:54;313.85;;;109.75;;
78183;SDS011;67442;44.570;18.610;2023-02-12T04:54:22;307.98;;;114.20;;
78183;SDS011;67442;44.570;18.610;2023-02-12T04:56:52;328.77;;;117.50;;
78183;SDS011;67442;44.570;18.610;2023-02-12T04:59:20;314.55;;;112.72;;
78183;SDS011;67442;44.570;18.610;2023-02-12T05:01:46;350.58;;;125.70;;
78183;SDS011;67442;44.570;18.610;2023-02-12T05:04:14;412.42;;;144.32;;
78183;SDS011;67442;44.570;18.610;2023-02-12T05:06:42;346.60;;;127.78;;
78183;SDS011;67442;44.570;18.610;2023-02-12T05:09:14;371.80;;;126.90;;
78183;SDS011;67442;44.570;18.610;2023-02-12T05:11:42;364.05;;;130.77;;
78183;SDS011;67442;44.570;18.610;2023-02-12T05:14:09;375.52;;;130.23;;
78183;SDS011;67442;44.570;18.610;2023-02-12T05:16:36;382.70;;;134.18;;
78183;SDS011;67442;44.570;18.610;2023-02-12T05:19:03;365.02;;;123.65;;
78183;SDS011;67442;44.570;18.610;2023-02-12T05:21:30;387.35;;;135.63;;
78183;SDS011;67442;44.570;18.610;2023-02-12T05:23:57;449.77;;;153.38;;
78183;SDS011;67442;44.570;18.610;2023-02-12T05:26:26;408.40;;;141.38;;
78183;SDS011;67442;44.570;18.610;2023-02-12T05:28:57;394.58;;;139.32;;
78183;SDS011;67442;44.570;18.610;2023-02-12T05:31:24;388.98;;;140.40;;
78183;SDS011;67442;44.570;18.610;2023-02-12T05:33:55;374.02;;;138.50;;
78183;SDS011;67442;44.570;18.610;2023-02-12T05:36:26;388.75;;;139.65;;
78183;SDS011;67442;44.570;18.610;2023-02-12T05:38:58;390.17;;;142.40;;
78183;SDS011;67442;44.570;18.610;2023-02-12T05:41:27;381.92;;;139.20;;
78183;SDS011;67442;44.570;18.610;2023-02-12T05:44:02;384.50;;;137.35;;
78183;SDS011;67442;44.570;18.610;2023-02-12T05:46:31;393.08;;;142.60;;
78183;SDS011;67442;44.570;18.610;2023-02-12T05:49:01;383.95;;;140.88;;
78183;SDS011;67442;44.570;18.610;2023-02-12T05:51:29;357.77;;;134.02;;
78183;SDS011;67442;44.570;18.610;2023-02-12T05:53:58;360.35;;;133.10;;
78183;SDS011;67442;44.570;18.610;2023-02-12T05:56:35;378.83;;;136.25;;
78183;SDS011;67442;44.570;18.610;2023-02-12T05:59:18;395.63;;;144.07;;
78183;SDS011;67442;44.570;18.610;2023-02-12T06:01:48;376.13;;;137.95;;
78183;SDS011;67442;44.570;18.610;2023-02-12T06:04:23;288.40;;;104.53;;
78183;SDS011;67442;44.570;18.610;2023-02-12T06:06:52;273.73;;;97.82;;
78183;SDS011;67442;44.570;18.610;2023-02-12T06:09:20;253.43;;;93.10;;
78183;SDS011;67442;44.570;18.610;2023-02-12T06:11:48;259.23;;;92.50;;
78183;SDS011;67442;44.570;18.610;2023-02-12T06:14:16;229.65;;;86.00;;
78183;SDS011;67442;44.570;18.610;2023-02-12T06:16:44;230.70;;;86.22;;
78183;SDS011;67442;44.570;18.610;2023-02-12T06:19:17;215.77;;;85.57;;
78183;SDS011;67442;44.570;18.610;2023-02-12T06:21:45;264.85;;;94.18;;
78183;SDS011;67442;44.570;18.610;2023-02-12T06:24:15;254.18;;;95.18;;
78183;SDS011;67442;44.570;18.610;2023-02-12T06:26:48;243.00;;;90.80;;
78183;SDS011;67442;44.570;18.610;2023-02-12T06:29:15;261.10;;;97.68;;
78183;SDS011;67442;44.570;18.610;2023-02-12T06:31:45;277.13;;;104.55;;
78183;SDS011;67442;44.570;18.610;2023-02-12T06:34:16;273.73;;;104.82;;
78183;SDS011;67442;44.570;18.610;2023-02-12T06:36:47;307.92;;;114.68;;
78183;SDS011;67442;44.570;18.610;2023-02-12T06:39:18;339.38;;;128.88;;
78183;SDS011;67442;44.570;18.610;2023-02-12T06:41:46;357.17;;;135.35;;
78183;SDS011;67442;44.570;18.610;2023-02-12T06:44:14;341.42;;;129.57;;
78183;SDS011;67442;44.570;18.610;2023-02-12T06:46:41;352.23;;;140.07;;
78183;SDS011;67442;44.570;18.610;2023-02-12T06:49:09;355.15;;;134.65;;
78183;SDS011;67442;44.570;18.610;2023-02-12T06:51:38;344.02;;;133.35;;
78183;SDS011;67442;44.570;18.610;2023-02-12T06:54:10;373.38;;;139.30;;
78183;SDS011;67442;44.570;18.610;2023-02-12T06:56:43;386.73;;;144.30;;
78183;SDS011;67442;44.570;18.610;2023-02-12T06:59:14;385.75;;;143.80;;
78183;SDS011;67442;44.570;18.610;2023-02-12T07:01:45;373.25;;;142.75;;
78183;SDS011;67442;44.570;18.610;2023-02-12T07:04:12;381.38;;;145.35;;
78183;SDS011;67442;44.570;18.610;2023-02-12T07:06:42;297.58;;;113.35;;
78183;SDS011;67442;44.570;18.610;2023-02-12T07:09:10;289.23;;;109.22;;
78183;SDS011;67442;44.570;18.610;2023-02-12T07:11:37;352.33;;;131.25;;
78183;SDS011;67442;44.570;18.610;2023-02-12T07:14:05;533.65;;;197.68;;
78183;SDS011;67442;44.570;18.610;2023-02-12T07:16:32;409.98;;;152.05;;
78183;SDS011;67442;44.570;18.610;2023-02-12T07:18:58;397.35;;;146.63;;
78183;SDS011;67442;44.570;18.610;2023-02-12T07:21:26;360.00;;;140.65;;
78183;SDS011;67442;44.570;18.610;2023-02-12T07:23:58;558.03;;;208.15;;
78183;SDS011;67442;44.570;18.610;2023-02-12T07:26:26;363.40;;;142.68;;
78183;SDS011;67442;44.570;18.610;2023-02-12T07:28:53;462.58;;;179.57;;
78183;SDS011;67442;44.570;18.610;2023-02-12T07:31:21;532.17;;;204.20;;
78183;SDS011;67442;44.570;18.610;2023-02-12T07:33:52;440.88;;;167.60;;
78183;SDS011;67442;44.570;18.610;2023-02-12T07:36:20;402.15;;;155.68;;
78183;SDS011;67442;44.570;18.610;2023-02-12T07:38:47;388.35;;;152.02;;
78183;SDS011;67442;44.570;18.610;2023-02-12T07:43:45;270.58;;;104.90;;
78183;SDS011;67442;44.570;18.610;2023-02-12T07:46:22;231.23;;;89.68;;
78183;SDS011;67442;44.570;18.610;2023-02-12T07:48:58;343.77;;;126.13;;
78183;SDS011;67442;44.570;18.610;2023-02-12T07:51:32;362.70;;;138.45;;
78183;SDS011;67442;44.570;18.610;2023-02-12T07:54:04;369.73;;;141.68;;
78183;SDS011;67442;44.570;18.610;2023-02-12T07:56:32;283.55;;;109.40;;
78183;SDS011;67442;44.570;18.610;2023-02-12T07:59:01;297.70;;;119.43;;
78183;SDS011;67442;44.570;18.610;2023-02-12T08:01:31;219.60;;;82.70;;
78183;SDS011;67442;44.570;18.610;2023-02-12T08:04:19;227.07;;;85.10;;
78183;SDS011;67442;44.570;18.610;2023-02-12T08:06:48;214.27;;;81.53;;
78183;SDS011;67442;44.570;18.610;2023-02-12T08:09:18;247.60;;;98.15;;
78183;SDS011;67442;44.570;18.610;2023-02-12T08:11:50;476.80;;;188.40;;
78183;SDS011;67442;44.570;18.610;2023-02-12T08:14:19;336.48;;;130.23;;
78183;SDS011;67442;44.570;18.610;2023-02-12T08:16:47;387.60;;;150.23;;
78183;SDS011;67442;44.570;18.610;2023-02-12T08:19:14;400.02;;;152.70;;
78183;SDS011;67442;44.570;18.610;2023-02-12T08:21:41;435.52;;;163.40;;
78183;SDS011;67442;44.570;18.610;2023-02-12T08:24:09;478.17;;;186.15;;
78183;SDS011;67442;44.570;18.610;2023-02-12T08:26:37;582.45;;;224.95;;
78183;SDS011;67442;44.570;18.610;2023-02-12T08:31:32;660.58;;;284.23;;
78183;SDS011;67442;44.570;18.610;2023-02-12T08:34:01;599.13;;;253.65;;
78183;SDS011;67442;44.570;18.610;2023-02-12T08:36:34;654.63;;;294.77;;
78183;SDS011;67442;44.570;18.610;2023-02-12T08:39:02;613.33;;;270.02;;
78183;SDS011;67442;44.570;18.610;2023-02-12T08:41:30;565.28;;;239.55;;
78183;SDS011;67442;44.570;18.610;2023-02-12T08:43:59;550.40;;;227.23;;
78183;SDS011;67442;44.570;18.610;2023-02-12T08:46:27;565.47;;;229.35;;
78183;SDS011;67442;44.570;18.610;2023-02-12T08:49:02;528.33;;;214.80;;
78183;SDS011;67442;44.570;18.610;2023-02-12T08:51:40;502.05;;;208.05;;
78183;SDS011;67442;44.570;18.610;2023-02-12T08:54:28;488.00;;;201.60;;
78183;SDS011;67442;44.570;18.610;2023-02-12T08:56:56;482.27;;;192.27;;
78183;SDS011;67442;44.570;18.610;2023-02-12T08:59:29;499.13;;;208.68;;
78183;SDS011;67442;44.570;18.610;2023-02-12T09:01:55;506.23;;;209.23;;
78183;SDS011;67442;44.570;18.610;2023-02-12T09:04:26;540.30;;;226.13;;
78183;SDS011;67442;44.570;18.610;2023-02-12T09:06:54;496.52;;;204.93;;
78183;SDS011;67442;44.570;18.610;2023-02-12T09:09:24;500.15;;;208.18;;
78183;SDS011;67442;44.570;18.610;2023-02-12T09:11:50;523.63;;;223.85;;
78183;SDS011;67442;44.570;18.610;2023-02-12T09:14:17;469.85;;;197.65;;
78183;SDS011;67442;44.570;18.610;2023-02-12T09:16:48;435.48;;;188.60;;
78183;SDS011;67442;44.570;18.610;2023-02-12T09:19:17;500.17;;;225.25;;
78183;SDS011;67442;44.570;18.610;2023-02-12T09:21:44;460.83;;;209.95;;
78183;SDS011;67442;44.570;18.610;2023-02-12T09:24:18;398.13;;;174.18;;
78183;SDS011;67442;44.570;18.610;2023-02-12T09:26:45;418.52;;;178.10;;
78183;SDS011;67442;44.570;18.610;2023-02-12T09:29:16;188.65;;;75.00;;
78183;SDS011;67442;44.570;18.610;2023-02-12T09:31:44;471.23;;;214.35;;
78183;SDS011;67442;44.570;18.610;2023-02-12T09:34:15;505.45;;;229.65;;
78183;SDS011;67442;44.570;18.610;2023-02-12T09:36:42;217.82;;;94.65;;
78183;SDS011;67442;44.570;18.610;2023-02-12T09:39:11;75.00;;;34.75;;
78183;SDS011;67442;44.570;18.610;2023-02-12T09:41:45;121.75;;;51.22;;
78183;SDS011;67442;44.570;18.610;2023-02-12T09:47:00;50.65;;;22.10;;
78183;SDS011;67442;44.570;18.610;2023-02-12T09:52:21;44.05;;;20.23;;
78183;SDS011;67442;44.570;18.610;2023-02-12T09:54:51;59.33;;;22.80;;
78183;SDS011;67442;44.570;18.610;2023-02-12T09:57:23;47.95;;;21.38;;
78183;SDS011;67442;44.570;18.610;2023-02-12T10:00:03;45.75;;;19.38;;
78183;SDS011;67442;44.570;18.610;2023-02-12T10:02:42;39.25;;;18.13;;
78183;SDS011;67442;44.570;18.610;2023-02-12T10:05:16;40.03;;;16.98;;
78183;SDS011;67442;44.570;18.610;2023-02-12T10:13:35;169.98;;;58.63;;
78183;SDS011;67442;44.570;18.610;2023-02-12T10:19:36;39.22;;;18.30;;
78183;SDS011;67442;44.570;18.610;2023-02-12T10:24:51;40.05;;;19.15;;
78183;SDS011;67442;44.570;18.610;2023-02-12T10:33:03;55.55;;;23.65;;
78183;SDS011;67442;44.570;18.610;2023-02-12T11:07:18;42.00;;;20.27;;
78183;SDS011;67442;44.570;18.610;2023-02-12T11:09:47;69.85;;;25.73;;
78183;SDS011;67442;44.570;18.610;2023-02-12T11:14:56;199.48;;;73.60;;
78183;SDS011;67442;44.570;18.610;2023-02-12T11:17:45;40.47;;;20.75;;
78183;SDS011;67442;44.570;18.610;2023-02-12T11:23:06;73.35;;;30.77;;
78183;SDS011;67442;44.570;18.610;2023-02-12T11:25:56;52.60;;;24.08;;
78183;SDS011;67442;44.570;18.610;2023-02-12T11:28:27;104.28;;;38.65;;
78183;SDS011;67442;44.570;18.610;2023-02-12T11:31:00;42.55;;;20.88;;
78183;SDS011;67442;44.570;18.610;2023-02-12T11:33:33;36.55;;;18.67;;
78183;SDS011;67442;44.570;18.610;2023-02-12T11:36:04;38.67;;;20.13;;
78183;SDS011;67442;44.570;18.610;2023-02-12T11:38:36;162.55;;;53.90;;
78183;SDS011;67442;44.570;18.610;2023-02-12T11:41:20;49.38;;;23.50;;
78183;SDS011;67442;44.570;18.610;2023-02-12T11:44:11;71.20;;;29.13;;
78183;SDS011;67442;44.570;18.610;2023-02-12T11:46:52;72.13;;;29.38;;
78183;SDS011;67442;44.570;18.610;2023-02-12T11:49:42;36.67;;;18.48;;
78183;SDS011;67442;44.570;18.610;2023-02-12T11:52:28;49.42;;;22.13;;
78183;SDS011;67442;44.570;18.610;2023-02-12T11:55:03;38.28;;;18.45;;
78183;SDS011;67442;44.570;18.610;2023-02-12T12:02:40;51.78;;;25.02;;
78183;SDS011;67442;44.570;18.610;2023-02-12T12:05:14;38.95;;;18.48;;
78183;SDS011;67442;44.570;18.610;2023-02-12T12:07:49;41.33;;;20.17;;
78183;SDS011;67442;44.570;18.610;2023-02-12T12:13:20;35.17;;;17.95;;
78183;SDS011;67442;44.570;18.610;2023-02-12T12:15:55;39.33;;;20.55;;
78183;SDS011;67442;44.570;18.610;2023-02-12T12:18:55;43.00;;;21.38;;
78183;SDS011;67442;44.570;18.610;2023-02-12T12:24:44;44.83;;;21.48;;
78183;SDS011;67442;44.570;18.610;2023-02-12T12:27:21;42.78;;;21.17;;
78183;SDS011;67442;44.570;18.610;2023-02-12T12:30:17;51.95;;;23.10;;
78183;SDS011;67442;44.570;18.610;2023-02-12T12:32:54;48.47;;;22.50;;
78183;SDS011;67442;44.570;18.610;2023-02-12T12:35:27;43.42;;;21.23;;
78183;SDS011;67442;44.570;18.610;2023-02-12T12:41:01;78.45;;;36.53;;
78183;SDS011;67442;44.570;18.610;2023-02-12T12:46:45;47.60;;;21.80;;
78183;SDS011;67442;44.570;18.610;2023-02-12T12:49:53;80.70;;;39.67;;
78183;SDS011;67442;44.570;18.610;2023-02-12T13:05:58;41.28;;;19.65;;
78183;SDS011;67442;44.570;18.610;2023-02-12T13:09:02;41.88;;;19.35;;
78183;SDS011;67442;44.570;18.610;2023-02-12T13:17:59;41.45;;;19.15;;
78183;SDS011;67442;44.570;18.610;2023-02-12T13:23:10;39.90;;;19.67;;
78183;SDS011;67442;44.570;18.610;2023-02-12T13:26:06;44.47;;;20.30;;
78183;SDS011;67442;44.570;18.610;2023-02-12T13:29:03;48.20;;;22.65;;
78183;SDS011;67442;44.570;18.610;2023-02-12T13:34:56;47.08;;;20.92;;
78183;SDS011;67442;44.570;18.610;2023-02-12T13:37:37;37.88;;;18.52;;
78183;SDS011;67442;44.570;18.610;2023-02-12T13:40:15;36.42;;;18.83;;
78183;SDS011;67442;44.570;18.610;2023-02-12T13:58:51;39.97;;;18.85;;
78183;SDS011;67442;44.570;18.610;2023-02-12T14:07:09;41.85;;;18.98;;
78183;SDS011;67442;44.570;18.610;2023-02-12T14:09:45;39.50;;;17.80;;
78183;SDS011;67442;44.570;18.610;2023-02-12T14:12:48;61.03;;;29.27;;
78183;SDS011;67442;44.570;18.610;2023-02-12T14:15:24;36.72;;;18.90;;
78183;SDS011;67442;44.570;18.610;2023-02-12T14:20:46;64.32;;;28.70;;
78183;SDS011;67442;44.570;18.610;2023-02-12T14:23:20;39.67;;;19.35;;
78183;SDS011;67442;44.570;18.610;2023-02-12T14:31:36;119.85;;;49.60;;
78183;SDS011;67442;44.570;18.610;2023-02-12T14:39:04;63.58;;;29.88;;
78183;SDS011;67442;44.570;18.610;2023-02-12T14:41:51;37.65;;;17.58;;
78183;SDS011;67442;44.570;18.610;2023-02-12T14:46:54;32.05;;;17.35;;
78183;SDS011;67442;44.570;18.610;2023-02-12T14:49:46;39.50;;;19.52;;
78183;SDS011;67442;44.570;18.610;2023-02-12T14:52:30;39.17;;;19.80;;
78183;SDS011;67442;44.570;18.610;2023-02-12T14:55:05;38.40;;;19.10;;
78183;SDS011;67442;44.570;18.610;2023-02-12T14:57:45;96.28;;;48.83;;
78183;SDS011;67442;44.570;18.610;2023-02-12T15:02:43;38.05;;;20.55;;
78183;SDS011;67442;44.570;18.610;2023-02-12T15:05:18;42.95;;;18.88;;
78183;SDS011;67442;44.570;18.610;2023-02-12T15:07:56;52.15;;;26.00;;
78183;SDS011;67442;44.570;18.610;2023-02-12T15:10:45;95.20;;;44.42;;
78183;SDS011;67442;44.570;18.610;2023-02-12T15:16:33;128.30;;;45.42;;
78183;SDS011;67442;44.570;18.610;2023-02-12T15:21:26;133.73;;;49.47;;
78183;SDS011;67442;44.570;18.610;2023-02-12T15:23:59;31.60;;;16.35;;
78183;SDS011;67442;44.570;18.610;2023-02-12T15:26:28;67.65;;;25.42;;
78183;SDS011;67442;44.570;18.610;2023-02-12T15:29:01;141.02;;;42.17;;
78183;SDS011;67442;44.570;18.610;2023-02-12T15:31:29;93.15;;;32.33;;
78183;SDS011;67442;44.570;18.610;2023-02-12T15:34:02;48.47;;;20.02;;
78183;SDS011;67442;44.570;18.610;2023-02-12T15:36:30;78.85;;;25.90;;
78183;SDS011;67442;44.570;18.610;2023-02-12T15:39:01;54.28;;;22.05;;
78183;SDS011;67442;44.570;18.610;2023-02-12T15:41:34;239.70;;;68.80;;
78183;SDS011;67442;44.570;18.610;2023-02-12T15:47:01;140.00;;;45.42;;
78183;SDS011;67442;44.570;18.610;2023-02-12T15:49:41;82.95;;;30.83;;
78183;SDS011;67442;44.570;18.610;2023-02-12T15:52:10;130.25;;;52.80;;
78183;SDS011;67442;44.570;18.610;2023-02-12T15:54:44;60.63;;;26.17;;
78183;SDS011;67442;44.570;18.610;2023-02-12T15:57:12;58.80;;;23.52;;
78183;SDS011;67442;44.570;18.610;2023-02-12T15:59:53;122.53;;;41.90;;
78183;SDS011;67442;44.570;18.610;2023-02-12T16:02:26;79.63;;;27.10;;
78183;SDS011;67442;44.570;18.610;2023-02-12T16:04:55;101.13;;;33.83;;
78183;SDS011;67442;44.570;18.610;2023-02-12T16:07:22;64.35;;;24.83;;
78183;SDS011;67442;44.570;18.610;2023-02-12T16:09:50;280.63;;;99.80;;
78183;SDS011;67442;44.570;18.610;2023-02-12T16:12:19;104.32;;;37.83;;
78183;SDS011;67442;44.570;18.610;2023-02-12T16:14:53;46.63;;;20.67;;
78183;SDS011;67442;44.570;18.610;2023-02-12T16:20:00;65.47;;;25.80;;
78183;SDS011;67442;44.570;18.610;2023-02-12T16:22:45;39.05;;;17.27;;
78183;SDS011;67442;44.570;18.610;2023-02-12T16:25:38;49.30;;;19.42;;
78183;SDS011;67442;44.570;18.610;2023-02-12T16:28:14;51.08;;;21.17;;
78183;SDS011;67442;44.570;18.610;2023-02-12T16:30:45;67.07;;;26.08;;
78183;SDS011;67442;44.570;18.610;2023-02-12T16:33:39;71.60;;;28.50;;
78183;SDS011;67442;44.570;18.610;2023-02-12T16:36:33;69.43;;;27.50;;
78183;SDS011;67442;44.570;18.610;2023-02-12T16:39:04;83.07;;;29.80;;
78183;SDS011;67442;44.570;18.610;2023-02-12T16:41:33;76.05;;;30.52;;
78183;SDS011;67442;44.570;18.610;2023-02-12T16:46:53;65.97;;;27.20;;
78183;SDS011;67442;44.570;18.610;2023-02-12T16:49:33;58.40;;;25.92;;
78183;SDS011;67442;44.570;18.610;2023-02-12T16:52:18;91.97;;;36.85;;
78183;SDS011;67442;44.570;18.610;2023-02-12T16:54:52;95.60;;;38.63;;
78183;SDS011;67442;44.570;18.610;2023-02-12T16:57:24;124.30;;;47.40;;
78183;SDS011;67442;44.570;18.610;2023-02-12T16:59:51;116.88;;;45.55;;
78183;SDS011;67442;44.570;18.610;2023-02-12T17:02:18;151.43;;;55.03;;
78183;SDS011;67442;44.570;18.610;2023-02-12T17:04:45;177.15;;;68.53;;
78183;SDS011;67442;44.570;18.610;2023-02-12T17:07:16;109.43;;;45.08;;
78183;SDS011;67442;44.570;18.610;2023-02-12T17:09:47;258.95;;;93.57;;
78183;SDS011;67442;44.570;18.610;2023-02-12T17:12:14;267.50;;;97.78;;
78183;SDS011;67442;44.570;18.610;2023-02-12T17:14:41;226.05;;;81.22;;
78183;SDS011;67442;44.570;18.610;2023-02-12T17:17:08;240.98;;;92.90;;
78183;SDS011;67442;44.570;18.610;2023-02-12T17:19:35;185.07;;;72.20;;
78183;SDS011;67442;44.570;18.610;2023-02-12T17:22:07;165.35;;;65.13;;
78183;SDS011;67442;44.570;18.610;2023-02-12T17:24:40;209.80;;;80.50;;
78183;SDS011;67442;44.570;18.610;2023-02-12T17:27:08;238.32;;;90.50;;
78183;SDS011;67442;44.570;18.610;2023-02-12T17:29:36;279.75;;;107.93;;
78183;SDS011;67442;44.570;18.610;2023-02-12T17:32:03;299.80;;;115.15;;
78183;SDS011;67442;44.570;18.610;2023-02-12T17:34:33;287.45;;;108.30;;
78183;SDS011;67442;44.570;18.610;2023-02-12T17:37:02;256.85;;;96.57;;
78183;SDS011;67442;44.570;18.610;2023-02-12T17:39:33;272.02;;;99.00;;
78183;SDS011;67442;44.570;18.610;2023-02-12T17:42:01;265.60;;;101.05;;
78183;SDS011;67442;44.570;18.610;2023-02-12T17:44:29;298.58;;;111.22;;
78183;SDS011;67442;44.570;18.610;2023-02-12T17:46:57;217.93;;;82.30;;
78183;SDS011;67442;44.570;18.610;2023-02-12T17:49:23;247.90;;;94.85;;
78183;SDS011;67442;44.570;18.610;2023-02-12T17:51:55;235.15;;;92.70;;
78183;SDS011;67442;44.570;18.610;2023-02-12T17:54:22;252.27;;;98.55;;
78183;SDS011;67442;44.570;18.610;2023-02-12T17:56:49;226.05;;;86.40;;
78183;SDS011;67442;44.570;18.610;2023-02-12T17:59:16;228.55;;;91.55;;
78183;SDS011;67442;44.570;18.610;2023-02-12T18:01:44;273.33;;;101.32;;
78183;SDS011;67442;44.570;18.610;2023-02-12T18:04:11;248.73;;;100.30;;